createdAt,value
2023-03-10T00:01:24.283Z,1.20
2023-03-10T00:03:52.699Z,1.20
2023-03-10T00:06:23.324Z,1.20
2023-03-10T00:08:50.924Z,1.20
2023-03-10T00:11:18.427Z,1.20
2023-03-10T00:13:45.492Z,1.20
2023-03-10T00:16:22.614Z,1.20
2023-03-10T00:18:49.771Z,1.20
2023-03-10T00:21:19.106Z,1.20
2023-03-10T00:23:46.384Z,1.20
2023-03-10T00:26:15.849Z,1.20
2023-03-10T00:28:43.785Z,1.20
2023-03-10T00:31:16.689Z,1.20
2023-03-10T00:33:44.188Z,1.20
2023-03-10T00:36:23.387Z,1.20
2023-03-10T00:38:51.781Z,1.20
2023-03-10T00:41:21.796Z,1.20
2023-03-10T00:43:49.315Z,1.20
2023-03-10T00:46:16.391Z,1.20
2023-03-10T00:48:43.809Z,1.20
2023-03-10T00:51:11.525Z,1.30
2023-03-10T00:53:40.314Z,1.20
2023-03-10T00:56:16.809Z,1.30
2023-03-10T00:58:45.979Z,1.30
2023-03-10T01:01:28.449Z,1.30
2023-03-10T01:03:57.798Z,1.30
2023-03-10T01:06:25.734Z,1.30
2023-03-10T01:08:52.988Z,1.30
2023-03-10T01:11:23.801Z,1.30
2023-03-10T01:13:51.337Z,1.40
2023-03-10T01:16:18.507Z,1.30
2023-03-10T01:18:45.494Z,1.30
2023-03-10T01:21:22.000Z,1.40
2023-03-10T01:23:49.370Z,1.40
2023-03-10T01:26:18.579Z,1.40
2023-03-10T01:28:46.833Z,1.40
2023-03-10T01:31:14.796Z,1.40
2023-03-10T01:33:43.021Z,1.40
2023-03-10T01:36:16.257Z,1.40
2023-03-10T01:38:44.203Z,1.40
2023-03-10T01:41:12.562Z,1.40
2023-03-10T01:43:42.839Z,1.40
2023-03-10T01:46:37.590Z,1.50
2023-03-10T01:49:29.116Z,1.40
2023-03-10T01:52:04.889Z,1.40
2023-03-10T01:54:49.929Z,1.50
2023-03-10T01:57:22.296Z,1.40
2023-03-10T01:59:51.434Z,1.40
2023-03-10T02:02:19.025Z,1.50
2023-03-10T02:04:48.880Z,1.40
2023-03-10T02:07:19.607Z,1.40
2023-03-10T02:09:49.676Z,1.40
2023-03-10T02:12:17.897Z,1.40
2023-03-10T02:14:47.281Z,1.40
2023-03-10T02:17:18.785Z,1.40
2023-03-10T02:20:09.044Z,1.50
2023-03-10T02:22:38.444Z,1.50
2023-03-10T02:25:29.677Z,1.50
2023-03-10T02:27:57.840Z,1.50
2023-03-10T02:30:44.820Z,1.50
2023-03-10T02:33:16.900Z,1.50
2023-03-10T02:35:43.872Z,1.50
2023-03-10T02:38:11.025Z,1.40
2023-03-10T02:40:57.451Z,1.40
2023-03-10T02:43:31.756Z,1.50
2023-03-10T02:46:05.234Z,1.50
2023-03-10T02:48:35.227Z,1.50
2023-03-10T02:51:05.586Z,1.50
2023-03-10T02:53:32.743Z,1.50
2023-03-10T02:56:00.253Z,1.60
2023-03-10T02:58:28.857Z,1.60
2023-03-10T03:00:56.794Z,1.60
2023-03-10T03:03:24.658Z,1.60
2023-03-10T03:05:52.871Z,1.60
2023-03-10T03:08:21.197Z,1.60
2023-03-10T03:10:48.286Z,1.60
2023-03-10T03:13:15.467Z,1.60
2023-03-10T03:15:42.679Z,1.60
2023-03-10T03:18:10.490Z,1.60
2023-03-10T03:20:38.705Z,1.60
2023-03-10T03:23:05.731Z,1.60
2023-03-10T03:25:36.531Z,1.60
2023-03-10T03:28:05.653Z,1.60
2023-03-10T03:30:33.150Z,1.60
2023-03-10T03:33:02.025Z,1.60
2023-03-10T03:35:32.160Z,1.60
2023-03-10T03:37:59.275Z,1.60
2023-03-10T03:40:27.852Z,1.60
2023-03-10T03:42:55.048Z,1.60
2023-03-10T03:45:24.858Z,1.60
2023-03-10T03:47:52.303Z,1.60
2023-03-10T03:50:21.588Z,1.60
2023-03-10T03:52:48.806Z,1.60
2023-03-10T03:55:17.450Z,1.60
2023-03-10T03:57:45.562Z,1.60
2023-03-10T04:00:19.727Z,1.60
2023-03-10T04:02:46.888Z,1.60
2023-03-10T04:05:14.142Z,1.60
2023-03-10T04:07:45.226Z,1.60
2023-03-10T04:10:15.212Z,1.60
2023-03-10T04:12:42.333Z,1.60
2023-03-10T04:15:09.836Z,1.60
2023-03-10T04:17:36.921Z,1.50
2023-03-10T04:20:09.033Z,1.60
2023-03-10T04:22:37.092Z,1.60
2023-03-10T04:25:05.889Z,1.60
2023-03-10T04:27:33.569Z,1.60
2023-03-10T04:30:00.793Z,1.60
2023-03-10T04:32:27.892Z,1.60
2023-03-10T04:34:54.920Z,1.60
2023-03-10T04:37:22.549Z,1.60
2023-03-10T04:39:49.587Z,1.60
2023-03-10T04:42:16.555Z,1.60
2023-03-10T04:44:43.624Z,1.60
2023-03-10T04:47:10.623Z,1.60
2023-03-10T04:49:38.623Z,1.60
2023-03-10T04:52:05.938Z,1.60
2023-03-10T04:54:33.071Z,1.60
2023-03-10T04:57:00.124Z,1.60
2023-03-10T04:59:27.180Z,1.60
2023-03-10T05:01:54.370Z,1.60
2023-03-10T05:04:21.533Z,1.60
2023-03-10T05:06:52.763Z,1.50
2023-03-10T05:09:20.962Z,1.50
2023-03-10T05:11:48.289Z,1.50
2023-03-10T05:14:15.772Z,1.50
2023-03-10T05:16:42.982Z,1.50
2023-03-10T05:19:09.970Z,1.50
2023-03-10T05:21:36.960Z,1.50
2023-03-10T05:24:04.100Z,1.50
2023-03-10T05:26:34.232Z,1.50
2023-03-10T05:29:02.174Z,1.50
2023-03-10T05:31:29.284Z,1.50
2023-03-10T05:33:57.040Z,1.50
2023-03-10T05:36:24.473Z,1.50
2023-03-10T05:38:51.555Z,1.50
2023-03-10T05:41:18.688Z,1.40
2023-03-10T05:43:45.974Z,1.40
2023-03-10T05:46:13.771Z,1.40
2023-03-10T05:48:41.128Z,1.40
2023-03-10T05:51:11.836Z,1.40
2023-03-10T05:53:39.624Z,1.40
2023-03-10T05:56:12.621Z,1.40
2023-03-10T05:58:42.100Z,1.40
2023-03-10T06:01:10.224Z,1.50
2023-03-10T06:03:38.297Z,1.50
2023-03-10T06:06:06.908Z,1.50
2023-03-10T06:08:35.098Z,1.50
2023-03-10T06:11:02.339Z,1.50
2023-03-10T06:13:31.673Z,1.50
2023-03-10T06:16:03.980Z,1.50
2023-03-10T06:18:31.182Z,1.50
2023-03-10T06:20:58.122Z,1.40
2023-03-10T06:23:26.447Z,1.60
2023-03-10T06:25:59.004Z,1.60
2023-03-10T06:28:33.055Z,1.60
2023-03-10T06:31:02.065Z,1.70
2023-03-10T06:33:30.769Z,1.70
2023-03-10T06:35:58.233Z,1.70
2023-03-10T06:38:25.901Z,1.70
2023-03-10T06:40:54.115Z,1.70
2023-03-10T06:43:22.393Z,1.70
2023-03-10T06:45:49.966Z,1.70
2023-03-10T06:48:17.976Z,1.70
2023-03-10T06:50:48.314Z,1.70
2023-03-10T06:53:20.429Z,1.80
2023-03-10T06:56:04.824Z,1.80
2023-03-10T06:58:33.524Z,1.80
2023-03-10T07:01:01.560Z,1.80
2023-03-10T07:03:29.457Z,1.80
2023-03-10T07:05:59.691Z,1.90
2023-03-10T07:08:28.304Z,1.90
2023-03-10T07:10:56.932Z,1.90
2023-03-10T07:13:25.694Z,2.00
2023-03-10T07:15:52.664Z,2.00
2023-03-10T07:18:20.343Z,2.00
2023-03-10T07:20:51.630Z,2.00
2023-03-10T07:23:18.625Z,2.00
2023-03-10T07:25:45.738Z,2.00
2023-03-10T07:28:12.928Z,2.00
2023-03-10T07:30:41.206Z,2.00
2023-03-10T07:33:09.792Z,2.00
2023-03-10T07:35:37.338Z,2.00
2023-03-10T07:38:05.106Z,2.10
2023-03-10T07:40:32.584Z,2.10
2023-03-10T07:43:01.342Z,2.10
2023-03-10T07:45:31.235Z,2.10
2023-03-10T07:47:58.384Z,2.10
2023-03-10T07:50:25.467Z,2.20
2023-03-10T07:52:52.519Z,2.20
2023-03-10T07:55:19.550Z,2.30
2023-03-10T07:57:46.514Z,2.30
2023-03-10T08:00:15.736Z,2.30
2023-03-10T08:02:43.181Z,2.30
2023-03-10T08:05:11.300Z,2.40
2023-03-10T08:07:39.127Z,2.40
2023-03-10T08:10:07.596Z,2.40
2023-03-10T08:12:35.656Z,2.50
2023-03-10T08:15:02.921Z,2.60
2023-03-10T08:17:33.787Z,2.60
2023-03-10T08:20:02.720Z,2.60
2023-03-10T08:22:30.002Z,2.60
2023-03-10T08:24:57.063Z,2.60
2023-03-10T08:27:24.280Z,2.60
2023-03-10T08:29:51.824Z,2.60
2023-03-10T08:32:19.904Z,2.80
2023-03-10T08:34:47.421Z,2.70
2023-03-10T08:37:14.763Z,2.70
2023-03-10T08:39:42.137Z,2.70
2023-03-10T08:42:12.080Z,2.70
2023-03-10T08:44:40.440Z,2.60
2023-03-10T08:47:08.190Z,2.60
2023-03-10T08:49:36.266Z,2.60
2023-03-10T08:52:03.835Z,2.60
2023-03-10T08:54:32.581Z,2.60
2023-03-10T08:57:00.478Z,2.60
2023-03-10T08:59:27.794Z,2.60
2023-03-10T09:01:55.880Z,2.60
2023-03-10T09:04:23.307Z,2.60
2023-03-10T09:06:51.750Z,2.70
2023-03-10T09:09:18.772Z,2.70
2023-03-10T09:11:46.157Z,2.80
2023-03-10T09:14:17.074Z,2.80
2023-03-10T09:16:44.716Z,2.80
2023-03-10T09:19:12.222Z,2.80
2023-03-10T09:21:39.760Z,2.80
2023-03-10T09:24:07.318Z,2.90
2023-03-10T09:26:34.978Z,2.90
2023-03-10T09:29:02.932Z,2.80
2023-03-10T09:31:33.502Z,2.80
2023-03-10T09:34:00.886Z,2.80
2023-03-10T09:36:29.894Z,2.90
2023-03-10T09:39:01.683Z,3.00
2023-03-10T09:41:49.805Z,3.00
2023-03-10T09:44:19.898Z,3.10
2023-03-10T09:47:03.976Z,3.10
2023-03-10T09:49:43.880Z,3.10
2023-03-10T09:52:20.127Z,3.10
2023-03-10T09:55:06.693Z,3.00
2023-03-10T09:57:35.035Z,3.00
2023-03-10T10:00:19.379Z,3.00
2023-03-10T10:02:49.213Z,3.00
2023-03-10T10:05:24.456Z,3.00
2023-03-10T10:07:57.126Z,3.10
2023-03-10T10:10:31.660Z,3.20
2023-03-10T10:13:03.596Z,3.30
2023-03-10T10:15:35.608Z,3.30
2023-03-10T10:18:35.270Z,3.30
2023-03-10T10:21:41.744Z,3.40
2023-03-10T10:24:09.859Z,3.40
2023-03-10T10:26:36.931Z,3.40
2023-03-10T10:29:13.275Z,3.40
2023-03-10T10:31:40.448Z,3.40
2023-03-10T10:34:20.300Z,3.40
2023-03-10T10:36:55.014Z,3.30
2023-03-10T10:39:33.123Z,3.30
2023-03-10T10:42:27.970Z,3.30
2023-03-10T10:45:04.992Z,3.30
2023-03-10T10:47:38.495Z,3.40
2023-03-10T10:50:26.353Z,3.40
2023-03-10T10:53:14.333Z,3.40
2023-03-10T10:55:42.924Z,3.50
2023-03-10T10:58:32.082Z,3.60
2023-03-10T11:01:20.028Z,3.60
2023-03-10T11:03:48.995Z,3.60
2023-03-10T11:06:22.169Z,3.60
2023-03-10T11:08:53.103Z,3.60
2023-03-10T11:11:42.164Z,3.60
2023-03-10T11:14:37.735Z,3.60
2023-03-10T11:17:27.528Z,3.60
2023-03-10T11:20:02.862Z,3.60
2023-03-10T11:22:39.232Z,3.50
2023-03-10T11:25:24.476Z,3.50
2023-03-10T11:28:10.372Z,3.50
2023-03-10T11:30:39.204Z,3.40
2023-03-10T11:33:36.358Z,3.40
2023-03-10T11:36:18.677Z,3.50
2023-03-10T11:38:51.298Z,3.50
2023-03-10T11:41:24.465Z,3.50
2023-03-10T11:44:11.174Z,3.40
2023-03-10T11:46:50.630Z,3.40
2023-03-10T11:49:24.370Z,3.50
2023-03-10T11:51:57.536Z,3.50
2023-03-10T11:54:35.416Z,3.50
2023-03-10T11:57:11.066Z,3.60
2023-03-10T11:59:47.737Z,3.70
2023-03-10T12:02:46.722Z,3.70
2023-03-10T12:05:26.392Z,3.80
2023-03-10T12:08:00.748Z,3.90
2023-03-10T12:10:29.707Z,4.00
2023-03-10T12:12:58.629Z,3.90
2023-03-10T12:15:37.038Z,3.90
2023-03-10T12:18:07.994Z,3.90
2023-03-10T12:20:37.104Z,3.90
2023-03-10T12:23:10.881Z,3.90
2023-03-10T12:25:38.697Z,3.90
2023-03-10T12:28:19.522Z,3.90
2023-03-10T12:30:56.598Z,3.90
2023-03-10T12:33:38.028Z,3.90
2023-03-10T12:36:36.284Z,3.90
2023-03-10T12:39:25.847Z,3.90
2023-03-10T12:41:56.490Z,3.80
2023-03-10T12:44:51.295Z,3.80
2023-03-10T12:47:25.828Z,3.80
2023-03-10T12:50:24.166Z,3.90
2023-03-10T12:53:04.137Z,3.90
2023-03-10T12:55:31.474Z,4.00
2023-03-10T12:58:15.640Z,4.00
2023-03-10T13:00:57.072Z,4.10
2023-03-10T13:03:43.042Z,4.10
2023-03-10T13:06:21.021Z,4.10
2023-03-10T13:09:11.277Z,4.10
2023-03-10T13:11:48.701Z,4.10
2023-03-10T13:14:17.735Z,4.00
2023-03-10T13:17:01.842Z,4.00
2023-03-10T13:19:34.602Z,4.00
2023-03-10T13:22:02.830Z,4.00
2023-03-10T13:24:31.025Z,4.00
2023-03-10T13:27:25.141Z,4.10
2023-03-10T13:30:16.489Z,4.00
2023-03-10T13:33:15.050Z,4.10
2023-03-10T13:35:42.524Z,4.10
2023-03-10T13:38:14.402Z,4.00
2023-03-10T13:41:06.528Z,4.00
2023-03-10T13:43:39.589Z,4.00
2023-03-10T13:46:14.903Z,4.00
2023-03-10T13:48:43.638Z,3.90
2023-03-10T13:51:26.769Z,3.90
2023-03-10T13:57:24.022Z,3.80
2023-03-10T13:59:52.467Z,3.90
2023-03-10T14:02:37.370Z,4.00
2023-03-10T14:05:07.174Z,3.90
2023-03-10T14:07:38.063Z,3.90
2023-03-10T14:10:06.037Z,3.90
2023-03-10T14:12:53.240Z,3.90
2023-03-10T14:15:20.706Z,4.00
2023-03-10T14:18:07.265Z,4.10
2023-03-10T14:20:38.332Z,4.10
2023-03-10T14:23:22.636Z,4.10
2023-03-10T14:25:53.006Z,4.20
2023-03-10T14:28:29.060Z,4.20
2023-03-10T14:30:57.127Z,4.40
2023-03-10T14:33:24.714Z,4.40
2023-03-10T14:35:52.161Z,4.40
2023-03-10T14:38:20.198Z,4.40
2023-03-10T14:40:53.616Z,4.30
2023-03-10T14:43:26.270Z,4.30
2023-03-10T14:45:56.468Z,4.30
2023-03-10T14:48:26.417Z,4.40
2023-03-10T14:50:56.581Z,4.40
2023-03-10T14:53:26.394Z,4.30
2023-03-10T14:55:58.680Z,4.20
2023-03-10T14:58:31.704Z,4.20
2023-03-10T15:01:00.558Z,4.10
2023-03-10T15:03:28.199Z,4.00
2023-03-10T15:05:56.090Z,4.00
2023-03-10T15:08:23.840Z,4.00
2023-03-10T15:10:52.244Z,4.00
2023-03-10T15:13:22.934Z,4.00
2023-03-10T15:15:53.992Z,4.00
2023-03-10T15:18:24.158Z,4.00
2023-03-10T15:20:51.289Z,4.00
2023-03-10T15:23:20.270Z,4.00
2023-03-10T15:25:47.975Z,3.90
2023-03-10T15:28:15.457Z,3.90
2023-03-10T15:30:42.996Z,3.90
2023-03-10T15:33:11.021Z,3.90
2023-03-10T15:35:39.795Z,3.90
2023-03-10T15:38:08.634Z,3.90
2023-03-10T15:40:36.109Z,3.80
2023-03-10T15:43:06.926Z,3.80
2023-03-10T15:45:34.195Z,3.80
2023-03-10T15:48:04.478Z,3.80
2023-03-10T15:50:31.479Z,3.70
2023-03-10T15:52:59.444Z,3.70
2023-03-10T15:55:28.912Z,3.60
2023-03-10T15:57:57.897Z,3.60
2023-03-10T16:00:27.504Z,3.60
2023-03-10T16:02:55.137Z,3.70
2023-03-10T16:05:22.410Z,3.70
2023-03-10T16:07:52.821Z,3.60
2023-03-10T16:10:21.140Z,3.60
2023-03-10T16:22:32.836Z,3.50
2023-03-10T16:25:30.759Z,3.50
2023-03-10T16:28:03.506Z,3.40
2023-03-10T16:30:34.006Z,3.40
2023-03-10T16:36:08.753Z,3.30
2023-03-10T16:42:57.203Z,3.20
2023-03-10T16:45:33.472Z,3.20
2023-03-10T16:48:25.348Z,3.10
2023-03-10T16:51:02.388Z,3.10
2023-03-10T17:06:01.948Z,2.90
2023-03-10T17:30:21.562Z,2.70
2023-03-10T17:32:49.666Z,2.70
2023-03-10T17:39:06.634Z,2.50
2023-03-10T17:41:35.929Z,2.40
2023-03-10T17:44:06.583Z,2.30
2023-03-10T17:46:36.821Z,2.20
2023-03-10T17:49:05.242Z,2.10
2023-03-10T17:51:32.747Z,2.00
2023-03-10T17:54:01.690Z,1.90
2023-03-10T17:56:29.913Z,1.80
2023-03-10T17:58:58.437Z,1.70
2023-03-10T18:01:28.733Z,1.70
2023-03-10T18:03:58.666Z,1.60
2023-03-10T18:06:31.468Z,1.50
2023-03-10T18:09:01.745Z,1.30
2023-03-10T18:11:29.971Z,1.20
2023-03-10T18:13:58.158Z,1.10
2023-03-10T18:16:31.084Z,1.00
2023-03-10T18:19:00.727Z,0.90
2023-03-10T18:21:28.810Z,0.90
2023-03-10T18:23:57.684Z,0.80
2023-03-10T18:26:28.740Z,0.80
2023-03-10T18:28:57.566Z,0.80
2023-03-10T18:31:29.341Z,0.70
2023-03-10T18:33:56.829Z,0.70
2023-03-10T18:36:25.928Z,0.70
2023-03-10T18:38:59.718Z,0.70
2023-03-10T18:41:30.265Z,0.60
2023-03-10T18:44:01.032Z,0.60
2023-03-10T18:46:28.975Z,0.50
2023-03-10T18:48:56.807Z,0.60
2023-03-10T18:51:26.806Z,0.60
2023-03-10T18:53:55.814Z,0.60
2023-03-10T18:56:26.304Z,0.60
2023-03-10T18:58:54.526Z,0.50
2023-03-10T19:01:22.952Z,0.50
2023-03-10T19:03:51.990Z,0.50
2023-03-10T19:06:19.350Z,0.50
2023-03-10T19:08:46.796Z,0.50
2023-03-10T19:11:15.251Z,0.50
2023-03-10T19:13:45.117Z,0.30
2023-03-10T19:16:13.423Z,0.50
2023-03-10T19:18:40.903Z,0.50
2023-03-10T19:21:10.029Z,0.50
2023-03-10T19:23:37.877Z,0.50
2023-03-10T19:26:06.001Z,0.50
2023-03-10T19:28:33.022Z,0.50
2023-03-10T19:31:00.400Z,0.40
2023-03-10T19:33:27.977Z,0.50
2023-03-10T19:36:05.914Z,0.50
2023-03-10T19:38:36.072Z,0.40
2023-03-10T19:41:04.489Z,0.50
2023-03-10T19:43:32.474Z,0.50
2023-03-10T19:46:01.473Z,0.50
2023-03-10T19:48:29.684Z,0.50
2023-03-10T19:50:58.509Z,0.50
2023-03-10T19:53:28.104Z,0.50
2023-03-10T19:55:57.964Z,0.50
2023-03-10T19:58:26.009Z,0.40
2023-03-10T20:00:58.442Z,0.50
2023-03-10T20:03:27.737Z,0.40
2023-03-10T20:05:56.303Z,0.50
2023-03-10T20:08:24.824Z,0.40
2023-03-10T20:10:52.211Z,0.40
2023-03-10T20:13:19.653Z,0.40
2023-03-10T20:15:47.073Z,0.40
2023-03-10T20:18:14.480Z,0.40
2023-03-10T20:20:41.893Z,0.40
2023-03-10T20:23:09.492Z,0.40
2023-03-10T20:25:37.030Z,0.40
2023-03-10T20:28:07.659Z,0.40
2023-03-10T20:30:36.180Z,0.40
2023-03-10T20:33:04.745Z,0.40
2023-03-10T20:35:33.959Z,0.40
2023-03-10T20:38:02.165Z,0.40
2023-03-10T20:40:29.757Z,0.40
2023-03-10T20:42:59.858Z,0.40
2023-03-10T20:45:27.814Z,0.40
2023-03-10T20:47:55.635Z,0.30
2023-03-10T20:50:23.491Z,0.30
2023-03-10T20:52:51.489Z,0.30
2023-03-10T20:55:22.523Z,0.30
2023-03-10T20:57:51.558Z,0.30
2023-03-10T21:00:21.529Z,0.30
2023-03-10T21:02:57.419Z,0.30
2023-03-10T21:05:26.465Z,0.30
2023-03-10T21:07:57.027Z,0.30
2023-03-10T21:10:27.007Z,0.30
2023-03-10T21:12:54.729Z,0.30
2023-03-10T21:15:23.908Z,0.30
2023-03-10T21:17:51.878Z,0.30
2023-03-10T21:20:22.507Z,0.40
2023-03-10T21:22:50.887Z,0.30
2023-03-10T21:25:23.432Z,0.30
2023-03-10T21:27:53.674Z,0.30
2023-03-10T21:30:21.780Z,0.30
2023-03-10T21:32:49.783Z,0.30
2023-03-10T21:35:17.773Z,0.30
2023-03-10T21:37:48.759Z,0.30
2023-03-10T21:40:19.932Z,0.30
2023-03-10T21:42:48.677Z,0.30
2023-03-10T21:45:19.663Z,0.40
2023-03-10T21:47:47.366Z,0.30
2023-03-10T21:50:16.659Z,0.30
2023-03-10T21:52:44.270Z,0.40
2023-03-10T21:55:19.889Z,0.30
2023-03-10T21:57:47.297Z,0.30
2023-03-10T22:00:15.495Z,0.30
2023-03-10T22:02:42.816Z,0.30
2023-03-10T22:05:14.214Z,0.30
2023-03-10T22:07:42.272Z,0.30
2023-03-10T22:10:11.369Z,0.30
2023-03-10T22:12:39.254Z,0.30
2023-03-10T22:15:16.581Z,0.30
2023-03-10T22:17:43.931Z,0.30
2023-03-10T22:20:18.668Z,0.30
2023-03-10T22:22:46.225Z,0.30
2023-03-10T22:25:14.952Z,0.30
2023-03-10T22:27:43.788Z,0.30
2023-03-10T22:30:11.956Z,0.30
2023-03-10T22:32:39.275Z,0.30
2023-03-10T22:35:07.255Z,0.30
2023-03-10T22:37:34.431Z,0.30
2023-03-10T22:40:02.237Z,0.30
2023-03-10T22:42:29.430Z,0.30
2023-03-10T22:44:56.765Z,0.30
2023-03-10T22:47:23.812Z,0.40
2023-03-10T22:49:51.150Z,0.30
2023-03-10T22:52:18.396Z,0.30
2023-03-10T22:54:45.485Z,0.40
2023-03-10T22:57:15.380Z,0.30
2023-03-10T22:59:42.669Z,0.40
2023-03-10T23:02:11.076Z,0.40
2023-03-10T23:04:39.104Z,0.40
2023-03-10T23:07:06.194Z,0.40
2023-03-10T23:09:33.244Z,0.40
2023-03-10T23:12:00.691Z,0.40
2023-03-10T23:14:27.865Z,0.30
2023-03-10T23:16:55.372Z,0.40
2023-03-10T23:19:22.700Z,0.30
2023-03-10T23:21:49.877Z,0.30
2023-03-10T23:24:17.174Z,0.30
2023-03-10T23:26:44.182Z,0.30
2023-03-10T23:29:11.465Z,0.30
2023-03-10T23:31:38.635Z,0.30
2023-03-10T23:34:05.649Z,0.30
2023-03-10T23:36:32.656Z,0.30
2023-03-10T23:38:59.791Z,0.30
2023-03-10T23:41:26.940Z,0.30
2023-03-10T23:43:53.976Z,0.30
2023-03-10T23:46:22.241Z,0.30
2023-03-10T23:48:49.958Z,0.30
2023-03-10T23:51:17.434Z,0.30
2023-03-10T23:53:44.746Z,0.30
2023-03-10T23:56:12.459Z,0.20
2023-03-10T23:58:40.548Z,0.20
